Time;durP1;ratioP1;P1;durP2;ratioP2;P2;SDS_P1;SDS_P2;PMS_P1;PMS_P2;Temp;Humidity;BMP_temperature;BMP_pressure;BME280_temperature;BME280_humidity;BME280_pressure;Samples;Min_cycle;Max_cycle;Signal;HPM_P1;HPM_P2
2021/06/27 00:00:31;;;;;;;1999.90;999.90;;;;;;;17.69;100.00;95711.59;5110564;28;20674;-60
2021/06/27 00:02:58;;;;;;;1999.90;999.90;;;;;;;17.60;100.00;95717.75;5110951;28;20282;-60
2021/06/27 00:05:29;;;;;;;1999.90;999.90;;;;;;;17.61;100.00;95710.66;5110695;28;20191;-60
2021/06/27 00:07:58;;;;;;;1999.90;999.90;;;;;;;17.63;100.00;95703.19;5110428;28;20190;-60
2021/06/27 00:10:27;;;;;;;1999.90;999.90;;;;;;;17.61;100.00;95705.38;5110169;28;20230;-61
2021/06/27 00:12:55;;;;;;;1999.90;999.90;;;;;;;17.51;100.00;95703.97;5110575;28;20209;-60
2021/06/27 00:15:25;;;;;;;1999.90;999.90;;;;;;;17.51;100.00;95709.22;5110190;28;20728;-60
2021/06/27 00:17:54;;;;;;;1999.90;999.90;;;;;;;17.60;100.00;95722.25;5110467;28;20193;-60
2021/06/27 00:20:24;;;;;;;1999.90;999.90;;;;;;;17.48;100.00;95711.75;5110237;28;20205;-59
2021/06/27 00:22:52;;;;;;;1999.90;999.90;;;;;;;17.47;100.00;95705.72;5110619;28;20209;-60
2021/06/27 00:25:24;;;;;;;1999.90;999.90;;;;;;;17.48;100.00;95703.88;5110031;28;20737;-60
2021/06/27 00:27:52;;;;;;;1999.90;999.90;;;;;;;17.48;100.00;95694.13;5110049;28;20179;-60
2021/06/27 00:30:21;;;;;;;1999.90;999.90;;;;;;;17.51;100.00;95692.69;5109645;28;20740;-60
2021/06/27 00:32:49;;;;;;;1999.90;999.90;;;;;;;17.49;100.00;95693.00;5110009;28;20224;-60
2021/06/27 00:35:18;;;;;;;1999.90;999.90;;;;;;;17.50;100.00;95683.25;5109877;28;20191;-60
2021/06/27 00:37:46;;;;;;;1999.90;999.90;;;;;;;17.52;100.00;95675.81;5110070;28;20290;-60
2021/06/27 00:40:16;;;;;;;1999.90;999.90;;;;;;;17.55;100.00;95672.50;5109871;28;20625;-59
2021/06/27 00:42:45;;;;;;;1999.90;999.90;;;;;;;17.58;100.00;95682.38;5109946;28;20195;-60
2021/06/27 00:45:14;;;;;;;1999.90;999.90;;;;;;;17.57;100.00;95681.59;5109771;28;20199;-61
2021/06/27 00:47:43;;;;;;;1999.90;999.90;;;;;;;17.52;100.00;95670.56;5109724;28;20199;-60
2021/06/27 00:50:14;;;;;;;1999.90;999.90;;;;;;;17.42;100.00;95674.41;5109986;28;20202;-62
2021/06/27 00:52:41;;;;;;;1999.90;999.90;;;;;;;17.41;100.00;95672.13;5109962;28;20188;-61
2021/06/27 00:55:10;;;;;;;1999.90;999.90;;;;;;;17.36;100.00;95667.84;5109371;28;20814;-60
2021/06/27 00:57:38;;;;;;;1999.90;999.90;;;;;;;17.28;100.00;95678.50;5109446;28;20238;-60
2021/06/27 01:00:10;;;;;;;1999.90;999.90;;;;;;;17.31;100.00;95672.56;5109764;28;20252;-60
2021/06/27 01:02:38;;;;;;;1999.90;999.90;;;;;;;17.28;100.00;95670.63;5109789;28;20179;-60
2021/06/27 01:05:07;;;;;;;1999.90;999.90;;;;;;;17.23;100.00;95668.22;5109826;28;20199;-60
2021/06/27 01:07:35;;;;;;;1999.90;999.90;;;;;;;17.12;100.00;95666.03;5109397;28;20226;-60
2021/06/27 01:10:02;;;;;;;1999.90;999.90;;;;;;;17.13;100.00;95659.69;5109452;28;20195;-60
2021/06/27 01:12:30;;;;;;;1999.90;999.90;;;;;;;17.10;100.00;95659.56;5109331;28;20617;-60
2021/06/27 01:14:57;;;;;;;1999.90;999.90;;;;;;;17.17;100.00;95657.94;5109604;28;20290;-61
2021/06/27 01:17:26;;;;;;;1999.90;999.90;;;;;;;17.02;100.00;95653.34;5109389;28;20198;-60
2021/06/27 01:19:53;;;;;;;1999.90;999.90;;;;;;;16.94;100.00;95651.59;5109349;28;20247;-60
2021/06/27 01:22:22;;;;;;;1999.90;999.90;;;;;;;16.95;100.00;95652.38;5109205;28;20207;-60
2021/06/27 01:24:50;;;;;;;1999.90;999.90;;;;;;;16.95;100.00;95653.13;5109204;28;20747;-60
2021/06/27 01:27:17;;;;;;;1999.90;999.90;;;;;;;16.96;100.00;95648.66;5109233;28;20628;-60
2021/06/27 01:29:44;;;;;;;1999.90;999.90;;;;;;;16.98;100.00;95647.25;5111766;28;20203;-60
2021/06/27 01:32:13;;;;;;;1999.90;999.90;;;;;;;17.01;100.00;95656.31;5108937;28;20239;-60
2021/06/27 01:34:43;;;;;;;1999.90;999.90;;;;;;;17.01;100.00;95657.06;5107063;28;20290;-61
2021/06/27 01:37:10;;;;;;;1999.90;999.90;;;;;;;17.00;100.00;95655.53;5108974;28;20677;-61
2021/06/27 01:39:39;;;;;;;1999.90;999.90;;;;;;;16.98;100.00;95657.75;5108817;28;20674;-60
2021/06/27 01:42:07;;;;;;;1999.90;999.90;;;;;;;16.95;100.00;95655.75;5108919;28;20191;-60
2021/06/27 01:44:35;;;;;;;1999.90;999.90;;;;;;;16.86;100.00;95655.09;5109016;28;20290;-60
2021/06/27 01:47:02;;;;;;;1999.90;999.90;;;;;;;16.81;100.00;95652.69;5108576;28;20245;-60
2021/06/27 01:49:30;;;;;;;1999.90;999.90;;;;;;;16.69;100.00;95650.84;5109230;28;20264;-59
2021/06/27 01:51:57;;;;;;;1999.90;999.90;;;;;;;16.68;100.00;95645.94;5110386;28;20279;-60
2021/06/27 01:54:24;;;;;;;1999.90;999.90;;;;;;;16.55;100.00;95641.72;5109000;28;20209;-60
2021/06/27 01:56:54;;;;;;;1999.90;999.90;;;;;;;16.46;100.00;95638.44;5108770;28;20248;-60
2021/06/27 01:59:21;;;;;;;1999.90;999.90;;;;;;;16.38;100.00;95639.31;5108901;28;20203;-59
2021/06/27 02:01:48;;;;;;;1999.90;999.90;;;;;;;16.44;100.00;95638.75;5103984;28;20203;-59
2021/06/27 02:04:15;;;;;;;1999.90;999.90;;;;;;;16.50;100.00;95652.44;5105525;28;20199;-60
2021/06/27 02:06:44;;;;;;;1999.90;999.90;;;;;;;16.54;100.00;95656.69;5107796;28;20830;-59
2021/06/27 02:09:14;;;;;;;1999.90;999.90;;;;;;;16.52;100.00;95650.25;5111388;28;20199;-59
2021/06/27 02:11:42;;;;;;;1999.90;999.90;;;;;;;16.44;100.00;95646.63;5112820;28;20258;-60
2021/06/27 02:14:11;;;;;;;1999.90;999.90;;;;;;;16.43;100.00;95647.75;5112835;28;20210;-58
2021/06/27 02:16:38;;;;;;;1999.90;999.90;;;;;;;16.34;100.00;95645.19;5112123;28;20207;-60
2021/06/27 02:19:06;;;;;;;1999.90;999.90;;;;;;;16.33;100.00;95641.06;5112437;28;20210;-58
2021/06/27 02:21:36;;;;;;;1999.90;999.90;;;;;;;16.33;100.00;95651.56;5111280;28;20227;-60
2021/06/27 02:24:05;;;;;;;1999.90;999.90;;;;;;;16.35;100.00;95651.97;5112258;28;20191;-59
2021/06/27 02:26:32;;;;;;;1999.90;999.90;;;;;;;16.34;100.00;95647.81;5111999;28;20199;-59
2021/06/27 02:29:00;;;;;;;1999.90;999.90;;;;;;;16.35;100.00;95654.59;5112419;28;20205;-59
2021/06/27 02:31:30;;;;;;;1999.90;999.90;;;;;;;16.36;100.00;95658.00;5111870;28;20231;-60
2021/06/27 02:33:58;;;;;;;1999.90;999.90;;;;;;;16.33;100.00;95656.81;5109083;28;20699;-58
2021/06/27 02:36:25;;;;;;;1999.90;999.90;;;;;;;16.31;100.00;95658.97;5102192;28;20203;-59
2021/06/27 02:38:53;;;;;;;1999.90;999.90;;;;;;;16.33;100.00;95654.19;5112469;28;20229;-59
2021/06/27 02:41:21;;;;;;;1999.90;999.90;;;;;;;16.36;100.00;95653.50;5111912;28;20727;-59
2021/06/27 02:43:49;;;;;;;1999.90;999.90;;;;;;;16.29;100.00;95653.28;5112012;28;20671;-60
2021/06/27 02:46:16;;;;;;;1999.90;999.90;;;;;;;16.31;100.00;95653.72;5111681;28;20958;-59
2021/06/27 02:48:45;;;;;;;1999.90;999.90;;;;;;;16.31;100.00;95651.09;5111769;28;20192;-60
2021/06/27 02:51:13;;;;;;;1999.90;999.90;;;;;;;16.31;100.00;95656.34;5111282;28;20227;-60
2021/06/27 02:53:40;;;;;;;1999.90;999.90;;;;;;;16.24;100.00;95650.84;5111865;28;20238;-60
2021/06/27 02:56:08;;;;;;;1999.90;999.90;;;;;;;16.07;100.00;95656.28;5111913;28;20195;-60
2021/06/27 02:58:40;;;;;;;1999.90;999.90;;;;;;;16.09;100.00;95658.59;5111846;28;20203;-58
2021/06/27 03:01:08;;;;;;;1999.90;999.90;;;;;;;16.18;100.00;95661.91;5112029;28;20270;-59
2021/06/27 03:03:35;;;;;;;1999.90;999.90;;;;;;;15.99;100.00;95657.13;5111689;28;20683;-60
2021/06/27 03:06:04;;;;;;;1999.90;999.90;;;;;;;15.92;100.00;95660.28;5111119;28;20203;-59
2021/06/27 03:08:32;;;;;;;1999.90;999.90;;;;;;;15.95;100.00;95664.09;5111592;28;20227;-60
2021/06/27 03:11:00;;;;;;;1999.90;999.90;;;;;;;15.99;100.00;95664.25;5111315;28;20241;-60
2021/06/27 03:13:27;;;;;;;1999.90;999.90;;;;;;;15.97;100.00;95667.19;5111782;28;20199;-60
2021/06/27 03:15:55;;;;;;;1999.90;999.90;;;;;;;16.06;100.00;95667.88;5111347;28;20705;-59
2021/06/27 03:18:22;;;;;;;1999.90;999.90;;;;;;;16.03;100.00;95671.13;5111395;28;20226;-60
2021/06/27 03:20:50;;;;;;;1999.90;999.90;;;;;;;16.11;100.00;95670.28;5111267;28;20203;-59
2021/06/27 03:23:18;;;;;;;1999.90;999.90;;;;;;;16.15;100.00;95675.63;5108127;28;20295;-60
2021/06/27 03:25:46;;;;;;;1999.90;999.90;;;;;;;16.21;100.00;95672.50;5111685;28;20199;-60
2021/06/27 03:28:13;;;;;;;1999.90;999.90;;;;;;;16.26;100.00;95680.16;5110988;28;20246;-60
2021/06/27 03:30:40;;;;;;;1999.90;999.90;;;;;;;16.36;100.00;95687.63;5111374;28;20234;-60
2021/06/27 03:33:10;;;;;;;1999.90;999.90;;;;;;;16.48;100.00;95686.13;5110891;27;20268;-60
2021/06/27 03:35:37;;;;;;;1999.90;999.90;;;;;;;16.61;100.00;95682.44;5111052;28;20191;-60
2021/06/27 03:38:09;;;;;;;1999.90;999.90;;;;;;;16.72;100.00;95679.06;5120909;27;20203;-61
2021/06/27 03:40:41;;;;;;;1999.90;999.90;;;;;;;16.85;100.00;95690.31;5106569;28;20206;-61
2021/06/27 03:43:08;;;;;;;1999.90;999.90;;;;;;;17.03;100.00;95680.38;5092140;28;20225;-60
2021/06/27 03:45:36;;;;;;;1999.90;999.90;;;;;;;17.13;100.00;95683.34;5099530;28;20207;-60
2021/06/27 03:48:04;;;;;;;1999.90;999.90;;;;;;;17.16;100.00;95687.16;5110785;28;20195;-60
2021/06/27 03:50:31;;;;;;;1999.90;999.90;;;;;;;17.21;100.00;95695.56;5111081;28;20195;-60
2021/06/27 03:52:59;;;;;;;1999.90;999.90;;;;;;;17.43;100.00;95686.47;5110696;28;20268;-60
2021/06/27 03:55:26;;;;;;;1999.90;999.90;;;;;;;17.52;100.00;95687.09;5110768;28;20234;-60
2021/06/27 03:57:55;;;;;;;1999.90;999.90;;;;;;;17.54;100.00;95682.25;5110686;28;20580;-61
2021/06/27 04:00:22;;;;;;;1999.90;999.90;;;;;;;17.57;100.00;95675.59;5110543;28;20203;-61
2021/06/27 04:02:49;;;;;;;1999.90;999.90;;;;;;;17.67;100.00;95679.63;5110429;28;20191;-61
2021/06/27 04:05:16;;;;;;;1999.90;999.90;;;;;;;17.72;100.00;95690.69;5110555;28;20199;-59
2021/06/27 04:07:44;;;;;;;1999.90;999.90;;;;;;;17.68;100.00;95695.09;5110606;28;20195;-59
2021/06/27 04:10:12;;;;;;;1999.90;999.90;;;;;;;17.80;100.00;95694.25;5110426;28;20239;-59
2021/06/27 04:12:40;;;;;;;1999.90;999.90;;;;;;;17.84;100.00;95697.75;5110306;28;20313;-58
2021/06/27 04:15:10;;;;;;;1999.90;999.90;;;;;;;17.92;100.00;95695.00;5110272;28;20199;-59
2021/06/27 04:17:38;;;;;;;1999.90;999.90;;;;;;;18.01;100.00;95695.63;5110189;28;20195;-58
2021/06/27 04:20:08;;;;;;;1999.90;999.90;;;;;;;17.94;100.00;95698.03;5107318;28;20199;-58
2021/06/27 04:22:36;;;;;;;1999.90;999.90;;;;;;;17.94;100.00;95708.56;5107498;28;20195;-58
2021/06/27 04:25:03;;;;;;;1999.90;999.90;;;;;;;18.05;100.00;95704.38;5107825;28;20201;-58
2021/06/27 04:27:31;;;;;;;1999.90;999.90;;;;;;;18.14;100.00;95709.47;5107620;28;20227;-58
2021/06/27 04:29:59;;;;;;;1999.90;999.90;;;;;;;18.27;100.00;95707.56;5107137;28;20248;-58
2021/06/27 04:32:28;;;;;;;1999.90;999.90;;;;;;;18.66;99.42;95714.59;5107737;28;20327;-58
2021/06/27 04:34:55;;;;;;;1999.90;999.90;;;;;;;18.97;98.65;95718.34;5109811;28;20602;-58
2021/06/27 04:37:22;;;;;;;1999.90;999.90;;;;;;;19.40;94.16;95726.09;5109862;28;20260;-58
2021/06/27 04:39:50;;;;;;;1999.90;999.90;;;;;;;19.72;94.58;95724.97;5110169;28;20233;-57
2021/06/27 04:42:18;;;;;;;1999.90;999.90;;;;;;;20.03;94.44;95718.00;5110104;28;20199;-58
2021/06/27 04:44:45;;;;;;;1999.90;999.90;;;;;;;20.54;90.72;95731.81;5109889;28;20255;-58
2021/06/27 04:47:12;;;;;;;1999.90;999.90;;;;;;;20.95;89.74;95733.66;5109715;28;20207;-58
2021/06/27 04:49:42;;;;;;;1999.90;999.90;;;;;;;21.10;88.82;95737.28;5109796;28;20203;-58
2021/06/27 04:52:09;;;;;;;1999.90;999.90;;;;;;;21.01;88.65;95734.13;5109662;28;20223;-59
2021/06/27 04:54:37;;;;;;;1999.90;999.90;;;;;;;21.15;89.96;95737.00;5109612;28;20286;-59
2021/06/27 04:57:06;;;;;;;1999.90;999.90;;;;;;;20.89;91.32;95729.78;5109529;28;20202;-59
2021/06/27 04:59:33;;;;;;;1999.90;999.90;;;;;;;21.03;87.16;95732.63;5109586;28;20670;-59
2021/06/27 05:02:00;;;;;;;1999.90;999.90;;;;;;;21.16;86.38;95738.53;5109864;28;20727;-59
2021/06/27 05:04:28;;;;;;;1999.90;999.90;;;;;;;21.02;89.02;95725.81;5109436;28;20295;-59
2021/06/27 05:06:56;;;;;;;1999.90;999.90;;;;;;;20.98;90.06;95726.88;5109361;28;20256;-59
2021/06/27 05:09:24;;;;;;;1999.90;999.90;;;;;;;21.19;92.60;95724.59;5109256;28;20291;-59
2021/06/27 05:11:51;;;;;;;1999.90;999.90;;;;;;;21.30;91.23;95725.53;5109347;28;20203;-58
2021/06/27 05:14:18;;;;;;;1999.90;999.90;;;;;;;21.31;91.28;95732.34;5109564;28;20285;-59
2021/06/27 05:16:45;;;;;;;1999.90;999.90;;;;;;;21.17;91.34;95734.03;5109628;28;20199;-59
2021/06/27 05:19:13;;;;;;;1999.90;999.90;;;;;;;21.11;92.24;95727.47;5109157;28;20206;-59
2021/06/27 05:21:40;;;;;;;1999.90;999.90;;;;;;;21.32;89.61;95739.13;5109146;28;20246;-59
2021/06/27 05:24:09;;;;;;;1999.90;999.90;;;;;;;21.22;90.68;95739.75;5109061;28;20199;-59
2021/06/27 05:26:36;;;;;;;1999.90;999.90;;;;;;;21.54;89.77;95736.81;5109293;28;20241;-59
2021/06/27 05:29:04;;;;;;;1999.90;999.90;;;;;;;21.82;87.61;95737.94;5109176;28;20203;-59
2021/06/27 05:31:35;;;;;;;1999.90;999.90;;;;;;;21.59;89.83;95736.50;5109003;28;20726;-59
2021/06/27 05:34:03;;;;;;;1999.90;999.90;;;;;;;21.80;89.65;95734.13;5109078;28;20214;-59
2021/06/27 05:36:36;;;;;;;1999.90;999.90;;;;;;;21.75;88.00;95737.88;5109606;28;20195;-59
2021/06/27 05:39:04;;;;;;;1999.90;999.90;;;;;;;22.06;89.19;95742.06;5109321;28;20198;-59
2021/06/27 05:41:33;;;;;;;1999.90;999.90;;;;;;;22.08;85.91;95742.44;5109837;28;20662;-59
2021/06/27 05:44:01;;;;;;;1999.90;999.90;;;;;;;21.96;85.91;95739.28;5116108;27;20214;-58
2021/06/27 05:46:28;;;;;;;1999.90;999.90;;;;;;;22.06;83.93;95749.25;5113467;28;20608;-59
2021/06/27 05:48:55;;;;;;;1999.90;999.90;;;;;;;22.00;82.79;95745.38;5113080;28;20191;-58
2021/06/27 05:51:23;;;;;;;1999.90;999.90;;;;;;;21.73;84.60;95747.25;5113718;28;20198;-58
2021/06/27 05:53:50;;;;;;;1999.90;999.90;;;;;;;22.06;86.89;95749.25;5113112;27;20233;-58
2021/06/27 05:56:19;;;;;;;1999.90;999.90;;;;;;;22.05;82.71;95745.81;5113039;28;20248;-59
2021/06/27 05:58:48;;;;;;;1999.90;999.90;;;;;;;21.95;85.01;95743.81;5112996;28;20202;-60
2021/06/27 06:01:17;;;;;;;1999.90;999.90;;;;;;;22.18;83.61;95744.47;5113054;28;20206;-58
2021/06/27 06:03:45;;;;;;;1999.90;999.90;;;;;;;22.40;82.33;95747.34;5112830;28;20255;-58
2021/06/27 06:06:14;;;;;;;1999.90;999.90;;;;;;;22.63;83.18;95740.00;5112954;28;20261;-58
2021/06/27 06:08:42;;;;;;;1999.90;999.90;;;;;;;22.57;80.71;95744.09;5113013;28;20199;-58
2021/06/27 06:11:10;;;;;;;1999.90;999.90;;;;;;;22.55;83.49;95744.50;5112936;28;20590;-58
2021/06/27 06:13:38;;;;;;;1999.90;999.90;;;;;;;22.48;83.96;95743.63;5112575;28;20215;-58
2021/06/27 06:16:08;;;;;;;1999.90;999.90;;;;;;;22.66;85.50;95740.06;5112694;28;20230;-59
2021/06/27 06:18:39;;;;;;;1999.90;999.90;;;;;;;22.82;82.89;95747.00;5113263;28;20195;-59
2021/06/27 06:21:07;;;;;;;1999.90;999.90;;;;;;;23.03;81.69;95742.66;5112694;28;20191;-59
2021/06/27 06:23:34;;;;;;;1999.90;999.90;;;;;;;23.13;80.58;95741.22;5112314;28;20199;-59
2021/06/27 06:26:02;;;;;;;1999.90;999.90;;;;;;;23.19;81.37;95734.47;5112796;28;20202;-59
2021/06/27 06:28:29;;;;;;;1999.90;999.90;;;;;;;23.42;83.44;95742.19;5112284;28;20275;-59
2021/06/27 06:30:56;;;;;;;1999.90;999.90;;;;;;;23.52;79.43;95746.81;5112276;28;20234;-59
2021/06/27 06:33:26;;;;;;;1999.90;999.90;;;;;;;23.32;79.43;95737.56;5112191;28;20252;-60
2021/06/27 06:35:53;;;;;;;1999.90;999.90;;;;;;;23.35;78.87;95736.84;5112619;28;20195;-58
2021/06/27 06:38:20;;;;;;;1999.90;999.90;;;;;;;23.34;78.57;95730.00;5112791;28;20922;-58
2021/06/27 06:40:48;;;;;;;1999.90;999.90;;;;;;;23.38;80.67;95736.09;5112239;28;20290;-58
2021/06/27 06:43:15;;;;;;;1999.90;999.90;;;;;;;23.55;80.36;95735.50;5112094;28;20195;-58
2021/06/27 06:45:42;;;;;;;1999.90;999.90;;;;;;;23.78;76.93;95746.59;5112353;28;20276;-59
2021/06/27 06:48:10;;;;;;;1999.90;999.90;;;;;;;23.47;81.83;95739.97;5112102;28;20671;-59
2021/06/27 06:50:39;;;;;;;1999.90;999.90;;;;;;;23.58;82.77;95740.81;5112201;27;20249;-57
2021/06/27 06:53:06;;;;;;;1999.90;999.90;;;;;;;24.00;84.08;95734.97;5111469;28;20283;-59
2021/06/27 06:55:34;;;;;;;1999.90;999.90;;;;;;;24.05;81.94;95743.69;5112011;28;20245;-57
2021/06/27 06:58:01;;;;;;;1999.90;999.90;;;;;;;24.26;79.48;95741.16;5112083;28;20747;-58
2021/06/27 07:00:28;;;;;;;1999.90;999.90;;;;;;;24.34;79.04;95751.44;5112251;28;20222;-58
2021/06/27 07:02:55;;;;;;;1999.90;999.90;;;;;;;24.41;78.34;95748.00;5111865;28;20195;-59
2021/06/27 07:05:23;;;;;;;1999.90;999.90;;;;;;;24.67;76.17;95744.28;5111832;28;20255;-59
2021/06/27 07:07:52;;;;;;;1999.90;999.90;;;;;;;24.66;76.27;95746.16;5112105;28;20206;-58
2021/06/27 07:10:19;;;;;;;1999.90;999.90;;;;;;;24.44;76.19;95747.28;5111686;28;20195;-59
2021/06/27 07:12:47;;;;;;;1999.90;999.90;;;;;;;24.39;75.69;95750.28;5111516;28;20314;-58
2021/06/27 07:15:15;;;;;;;1999.90;999.90;;;;;;;24.51;77.16;95752.59;5111740;28;20195;-59
2021/06/27 07:17:43;;;;;;;1999.90;999.90;;;;;;;24.38;78.00;95746.09;5111826;28;20199;-59
2021/06/27 07:20:12;;;;;;;1999.90;999.90;;;;;;;24.72;78.41;95741.25;5111703;28;20195;-59
2021/06/27 07:22:39;;;;;;;1999.90;999.90;;;;;;;24.73;75.82;95740.88;5111424;28;20207;-58
2021/06/27 07:25:10;;;;;;;1999.90;999.90;;;;;;;24.83;73.71;95737.47;5111355;28;20199;-59
2021/06/27 07:27:37;;;;;;;1999.90;999.90;;;;;;;24.94;75.12;95734.84;5111412;28;20183;-59
2021/06/27 07:30:06;;;;;;;1999.90;999.90;;;;;;;25.18;74.14;95735.97;5110944;28;20759;-59
2021/06/27 07:32:33;;;;;;;1999.90;999.90;;;;;;;25.34;73.18;95725.72;5111304;28;20651;-58
2021/06/27 07:35:00;;;;;;;1999.90;999.90;;;;;;;25.54;72.74;95731.38;5111500;28;20622;-59
2021/06/27 07:37:28;;;;;;;1999.90;999.90;;;;;;;25.63;71.53;95727.19;5114180;27;20218;-58
2021/06/27 07:39:55;;;;;;;1999.90;999.90;;;;;;;25.58;70.47;95727.59;5111613;28;20195;-60
2021/06/27 07:42:24;;;;;;;1999.90;999.90;;;;;;;25.27;72.30;95728.38;5111030;28;20252;-58
2021/06/27 07:44:51;;;;;;;1999.90;999.90;;;;;;;25.36;73.75;95725.31;5110752;28;20203;-58
2021/06/27 07:47:18;;;;;;;1999.90;999.90;;;;;;;25.65;73.60;95724.91;5110844;28;20252;-58
2021/06/27 07:49:46;;;;;;;1999.90;999.90;;;;;;;25.94;74.89;95719.50;5110746;28;20227;-59
2021/06/27 07:52:13;;;;;;;1999.90;999.90;;;;;;;26.20;72.52;95719.00;5111416;28;20278;-59
2021/06/27 07:54:40;;;;;;;1999.90;999.90;;;;;;;26.43;69.59;95724.63;5110781;27;20663;-59
2021/06/27 07:57:09;;;;;;;1999.90;999.90;;;;;;;26.30;70.71;95723.53;5110846;28;20199;-59
2021/06/27 07:59:37;;;;;;;1999.90;999.90;;;;;;;26.35;69.64;95720.47;5110570;28;20256;-59
2021/06/27 08:02:05;;;;;;;1999.90;999.90;;;;;;;26.28;73.37;95720.50;5110987;28;20219;-60
2021/06/27 08:04:32;;;;;;;1999.90;999.90;;;;;;;26.36;71.98;95721.22;5109636;28;20586;-57
2021/06/27 08:07:00;;;;;;;1999.90;999.90;;;;;;;26.66;70.18;95718.00;5110786;28;20194;-59
2021/06/27 08:09:27;;;;;;;1999.90;999.90;;;;;;;26.85;70.32;95712.91;5110647;28;20199;-58
2021/06/27 08:11:55;;;;;;;1999.90;999.90;;;;;;;27.10;71.10;95715.41;5110451;28;20209;-58
2021/06/27 08:14:22;;;;;;;1999.90;999.90;;;;;;;26.86;67.51;95717.13;5110275;28;20254;-56
2021/06/27 08:16:50;;;;;;;1999.90;999.90;;;;;;;27.21;71.68;95710.72;5110747;28;20195;-59
2021/06/27 08:19:18;;;;;;;1999.90;999.90;;;;;;;27.42;67.77;95709.78;5110705;28;20260;-58
2021/06/27 08:21:45;;;;;;;1999.90;999.90;;;;;;;27.21;69.67;95707.31;5110515;28;20294;-60
2021/06/27 08:24:12;;;;;;;1999.90;999.90;;;;;;;27.24;67.52;95703.88;5110056;28;20195;-59
2021/06/27 08:26:39;;;;;;;1999.90;999.90;;;;;;;27.48;66.77;95702.88;5110599;28;20195;-59
2021/06/27 08:29:07;;;;;;;1999.90;999.90;;;;;;;27.66;67.43;95698.09;5110078;28;20195;-59
2021/06/27 08:31:34;;;;;;;1999.90;999.90;;;;;;;27.85;66.09;95701.34;5109932;28;20733;-59
2021/06/27 08:34:03;;;;;;;1999.90;999.90;;;;;;;27.91;68.02;95697.81;5109998;28;20223;-59
2021/06/27 08:36:30;;;;;;;1999.90;999.90;;;;;;;27.92;67.10;95694.00;5110058;28;20199;-59
2021/06/27 08:38:57;;;;;;;1999.90;999.90;;;;;;;28.12;63.43;95700.28;5110273;28;20206;-59
2021/06/27 08:41:24;;;;;;;1999.90;999.90;;;;;;;28.12;63.09;95699.50;5110050;28;20199;-59
2021/06/27 08:43:52;;;;;;;1999.90;999.90;;;;;;;28.29;64.87;95695.09;5110217;28;20659;-59
2021/06/27 08:46:21;;;;;;;1999.90;999.90;;;;;;;28.29;64.61;95692.44;5109925;28;20231;-59
2021/06/27 08:48:48;;;;;;;1999.90;999.90;;;;;;;28.56;62.24;95693.94;5110295;28;20230;-59
2021/06/27 08:51:17;;;;;;;1999.90;999.90;;;;;;;28.63;61.43;95687.72;5108473;28;20254;-59
2021/06/27 08:53:44;;;;;;;1999.90;999.90;;;;;;;28.73;62.25;95691.44;5098273;28;20964;-59
2021/06/27 08:56:13;;;;;;;1999.90;999.90;;;;;;;28.87;61.60;95686.63;5109641;28;20745;-59
2021/06/27 08:58:41;;;;;;;1999.90;999.90;;;;;;;28.81;62.84;95682.13;5109711;28;20670;-60
2021/06/27 09:01:13;;;;;;;1999.90;999.90;;;;;;;28.79;60.84;95679.88;5109564;28;20234;-59
2021/06/27 09:03:40;;;;;;;1999.90;999.90;;;;;;;28.36;59.34;95684.28;5109730;28;20594;-59
2021/06/27 09:06:09;;;;;;;1999.90;999.90;;;;;;;28.42;62.15;95682.69;5109494;28;20191;-59
2021/06/27 09:08:39;;;;;;;1999.90;999.90;;;;;;;28.53;60.98;95685.97;5109652;28;20274;-59
2021/06/27 09:11:14;;;;;;;1999.90;999.90;;;;;;;28.66;58.80;95679.66;5109795;28;20199;-59
2021/06/27 09:13:44;;;;;;;1999.90;999.90;;;;;;;28.87;61.96;95685.84;5109548;28;20690;-59
2021/06/27 09:16:24;;;;;;;1999.90;999.90;;;;;;;28.91;58.47;95687.31;5110203;28;20191;-59
2021/06/27 09:18:52;;;;;;;1999.90;999.90;;;;;;;28.88;60.23;95682.78;5109673;28;20195;-61
2021/06/27 09:21:22;;;;;;;1999.90;999.90;;;;;;;29.05;59.25;95676.38;5108858;28;20207;-59
2021/06/27 09:23:51;;;;;;;1999.90;999.90;;;;;;;29.04;59.81;95674.84;5109919;28;20191;-59
2021/06/27 09:26:29;;;;;;;1999.90;999.90;;;;;;;29.18;56.19;95665.84;5109732;28;20271;-59
2021/06/27 09:28:57;;;;;;;1999.90;999.90;;;;;;;29.35;57.29;95669.38;5109469;28;20221;-59
2021/06/27 09:31:39;;;;;;;1999.90;999.90;;;;;;;29.40;58.76;95668.91;5109253;28;20266;-59
2021/06/27 09:34:09;;;;;;;1999.90;999.90;;;;;;;29.61;58.99;95663.16;5111853;28;20280;-59
2021/06/27 09:36:40;;;;;;;1999.90;999.90;;;;;;;29.77;57.47;95662.47;5109030;28;20217;-59
2021/06/27 09:39:14;;;;;;;1999.90;999.90;;;;;;;29.85;56.07;95661.91;5109387;28;20278;-59
2021/06/27 09:41:52;;;;;;;1999.90;999.90;;;;;;;29.43;58.51;95668.84;5109021;28;20189;-59
2021/06/27 09:44:20;;;;;;;1999.90;999.90;;;;;;;29.53;54.03;95659.09;5109291;28;20270;-59
2021/06/27 09:46:50;;;;;;;1999.90;999.90;;;;;;;29.72;59.40;95660.28;5109635;28;20241;-59
2021/06/27 09:49:20;;;;;;;1999.90;999.90;;;;;;;29.73;55.66;95653.75;5109432;28;20187;-59
2021/06/27 09:51:53;;;;;;;1999.90;999.90;;;;;;;29.90;56.53;95661.44;5109086;28;20199;-59
2021/06/27 09:54:23;;;;;;;1999.90;999.90;;;;;;;30.02;52.56;95656.63;5109335;28;20339;-59
2021/06/27 09:56:52;;;;;;;1999.90;999.90;;;;;;;30.06;51.90;95655.38;5109160;28;20270;-59
2021/06/27 09:59:20;;;;;;;1999.90;999.90;;;;;;;30.24;52.76;95647.69;5109287;28;20213;-57
2021/06/27 10:01:48;;;;;;;1999.90;999.90;;;;;;;30.35;51.84;95650.16;5109011;28;20199;-59
2021/06/27 10:04:27;;;;;;;1999.90;999.90;;;;;;;30.42;53.90;95647.31;5109279;28;20203;-59
2021/06/27 10:06:56;;;;;;;1999.90;999.90;;;;;;;30.43;53.26;95646.16;5109390;28;20359;-58
2021/06/27 10:09:29;;;;;;;1999.90;999.90;;;;;;;30.43;51.85;95645.38;5108944;28;20256;-58
2021/06/27 10:11:59;;;;;;;1999.90;999.90;;;;;;;30.55;51.25;95647.41;5108965;28;20219;-58
2021/06/27 10:14:29;;;;;;;1999.90;999.90;;;;;;;30.73;52.39;95643.16;5109176;28;20214;-59
2021/06/27 10:16:57;;;;;;;1999.90;999.90;;;;;;;30.64;51.19;95645.66;5108982;28;20233;-59
2021/06/27 10:19:26;;;;;;;1999.90;999.90;;;;;;;30.82;54.08;95641.81;5108727;28;20203;-59
2021/06/27 10:21:55;;;;;;;1999.90;999.90;;;;;;;30.97;52.43;95640.28;5108543;28;20222;-59
2021/06/27 10:24:25;;;;;;;1999.90;999.90;;;;;;;30.82;51.99;95645.25;5108518;28;20278;-58
2021/06/27 10:26:53;;;;;;;1999.90;999.90;;;;;;;30.64;52.74;95648.34;5108891;28;20720;-59
2021/06/27 10:29:21;;;;;;;1999.90;999.90;;;;;;;30.56;51.46;95643.56;5112371;28;20195;-59
2021/06/27 10:31:51;;;;;;;1999.90;999.90;;;;;;;30.87;50.08;95635.94;5112447;28;20226;-59
2021/06/27 10:34:19;;;;;;;1999.90;999.90;;;;;;;30.45;49.11;95643.03;5112290;28;20225;-59
2021/06/27 10:36:51;;;;;;;1999.90;999.90;;;;;;;30.44;53.04;95628.13;5112627;28;20199;-59
2021/06/27 10:39:20;;;;;;;1999.90;999.90;;;;;;;30.57;53.62;95624.38;5112393;28;20570;-59
2021/06/27 10:41:54;;;;;;;1999.90;999.90;;;;;;;30.97;52.68;95624.16;5112267;28;20203;-60
2021/06/27 10:44:24;;;;;;;1999.90;999.90;;;;;;;30.98;50.44;95625.69;5112074;28;20195;-60
2021/06/27 10:46:52;;;;;;;1999.90;999.90;;;;;;;31.20;51.87;95621.28;5112051;28;20199;-60
2021/06/27 10:50:03;;;;;;;1999.90;999.90;;;;;;;31.26;52.89;95627.66;5112000;28;20203;-60
2021/06/27 10:52:30;;;;;;;1999.90;999.90;;;;;;;31.11;50.70;95623.84;5112014;28;20216;-60
2021/06/27 10:55:19;;;;;;;1999.90;999.90;;;;;;;31.37;49.52;95624.69;5112317;28;20714;-61
2021/06/27 10:57:57;;;;;;;1999.90;999.90;;;;;;;31.34;48.28;95620.16;5112011;28;20199;-60